Time;durP1;ratioP1;P1;durP2;ratioP2;P2;SDS_P1;SDS_P2;PMS_P1;PMS_P2;Temp;Humidity;BMP_temperature;BMP_pressure;BME280_temperature;BME280_humidity;BME280_pressure;Samples;Min_cycle;Max_cycle;Signal;HPM_P1;HPM_P2
2022/04/27 00:00:41;;;;;;;0.10;0.10;;;9.40;1.00;12.80;88045.00;;;;4998428;28;20203;-70
2022/04/27 00:03:09;;;;;;;0.10;0.10;;;9.40;1.00;12.80;88045.00;;;;5005172;28;20263;-71
2022/04/27 00:05:37;;;;;;;0.10;0.10;;;9.40;1.00;12.80;88045.00;;;;5014490;28;20610;-70
2022/04/27 00:08:06;;;;;;;0.10;0.10;;;9.40;1.00;12.80;88045.00;;;;5022724;28;20231;-71
2022/04/27 00:10:35;;;;;;;0.10;0.10;;;9.50;1.00;12.80;88045.00;;;;5010116;28;21162;-71
2022/04/27 00:13:04;;;;;;;0.10;0.10;;;9.60;1.00;12.80;88045.00;;;;5005617;28;20199;-72
2022/04/27 00:15:32;;;;;;;0.10;0.10;;;9.40;1.00;12.80;88045.00;;;;5011360;28;20219;-71
2022/04/27 00:18:00;;;;;;;0.10;0.10;;;9.40;1.00;12.80;88045.00;;;;5018945;28;20567;-71
2022/04/27 00:20:28;;;;;;;0.10;0.10;;;9.40;1.00;12.80;88045.00;;;;5016673;28;20219;-71
2022/04/27 00:22:56;;;;;;;0.10;0.10;;;9.50;1.00;12.80;88045.00;;;;5004656;28;20215;-71
2022/04/27 00:25:24;;;;;;;0.10;0.10;;;9.40;1.00;12.80;88045.00;;;;4992438;28;20714;-71
2022/04/27 00:27:53;;;;;;;0.03;0.03;;;9.20;1.00;12.80;88045.00;;;;4992293;28;20196;-71
2022/04/27 00:30:21;;;;;;;0.10;0.10;;;9.10;1.00;12.80;88045.00;;;;4991413;28;20205;-71
2022/04/27 00:32:49;;;;;;;0.10;0.10;;;9.00;1.00;12.80;88045.00;;;;5008786;28;20200;-71
2022/04/27 00:35:17;;;;;;;0.10;0.10;;;8.90;1.00;12.80;88045.00;;;;5011973;28;20235;-71
2022/04/27 00:37:46;;;;;;;0.08;0.08;;;8.80;1.00;12.80;88045.00;;;;5026952;28;20642;-71
2022/04/27 00:40:14;;;;;;;0.10;0.10;;;8.80;1.00;12.80;88045.00;;;;4997268;28;20192;-71
2022/04/27 00:42:45;;;;;;;0.10;0.10;;;8.90;1.00;12.80;88045.00;;;;5009232;28;20200;-71
2022/04/27 00:45:14;;;;;;;0.10;0.10;;;8.80;1.00;12.80;88045.00;;;;5027077;28;20630;-72
2022/04/27 00:47:42;;;;;;;0.10;0.10;;;8.80;1.00;12.80;88045.00;;;;5009251;28;20195;-72
2022/04/27 00:50:11;;;;;;;0.00;0.00;;;8.90;1.00;12.80;88045.00;;;;4998891;28;20607;-72
2022/04/27 00:52:39;;;;;;;0.10;0.10;;;8.90;1.00;12.80;88045.00;;;;5011128;28;20192;-72
2022/04/27 00:55:10;;;;;;;0.10;0.10;;;8.90;1.00;12.80;88045.00;;;;5001952;28;20224;-71
2022/04/27 00:57:40;;;;;;;0.10;0.10;;;9.00;1.00;12.80;88045.00;;;;4992491;28;20208;-72
2022/04/27 01:00:09;;;;;;;0.10;0.10;;;9.00;1.00;12.80;88045.00;;;;4993838;28;20208;-71
2022/04/27 01:02:39;;;;;;;0.10;0.10;;;8.80;1.00;12.80;88045.00;;;;5010654;28;20231;-71
2022/04/27 01:05:09;;;;;;;0.08;0.08;;;8.80;1.00;12.80;88045.00;;;;5010919;28;20223;-71
2022/04/27 01:07:39;;;;;;;0.10;0.10;;;8.70;1.00;12.80;88045.00;;;;5015954;28;20216;-71
2022/04/27 01:10:09;;;;;;;0.10;0.10;;;8.70;1.00;12.80;88045.00;;;;5012594;28;20234;-71
2022/04/27 01:12:42;;;;;;;0.10;0.10;;;8.80;1.00;12.80;88045.00;;;;5030906;28;20685;-71
2022/04/27 01:15:32;;;;;;;0.10;0.10;;;8.80;1.00;12.80;88045.00;;;;5014158;28;20219;-71
2022/04/27 01:18:01;;;;;;;0.08;0.08;;;8.90;1.00;12.80;88045.00;;;;5015748;28;20199;-71
2022/04/27 01:20:37;;;;;;;0.10;0.10;;;8.90;1.00;12.80;88045.00;;;;5011620;28;20212;-71
2022/04/27 01:23:07;;;;;;;0.10;0.10;;;8.90;1.00;12.80;88045.00;;;;5033382;28;20619;-71
2022/04/27 01:25:49;;;;;;;0.00;0.00;;;8.90;1.00;12.80;88045.00;;;;5015245;28;20223;-71
2022/04/27 01:28:23;;;;;;;0.10;0.10;;;8.80;1.00;12.80;88045.00;;;;5015736;28;20191;-72
2022/04/27 01:30:59;;;;;;;0.10;0.10;;;8.80;1.00;12.80;88045.00;;;;5032786;28;20203;-72
2022/04/27 01:33:29;;;;;;;0.10;0.10;;;8.70;1.00;12.80;88045.00;;;;5032875;28;20195;-70
2022/04/27 01:35:59;;;;;;;0.10;0.10;;;8.50;1.00;12.80;88045.00;;;;4999214;28;20227;-71
2022/04/27 01:38:33;;;;;;;0.10;0.10;;;8.30;1.00;12.80;88045.00;;;;5016191;28;20200;-71
2022/04/27 01:41:02;;;;;;;0.10;0.10;;;8.20;1.00;12.80;88045.00;;;;5017769;28;20673;-71
2022/04/27 01:43:30;;;;;;;0.10;0.10;;;8.20;1.00;12.80;88045.00;;;;5009413;28;20198;-70
2022/04/27 01:45:58;;;;;;;0.10;0.10;;;8.30;1.00;12.80;88045.00;;;;5014706;28;20215;-71
2022/04/27 01:48:27;;;;;;;0.10;0.10;;;8.10;1.00;12.80;88045.00;;;;5018986;28;20191;-71
2022/04/27 01:50:55;;;;;;;0.10;0.10;;;8.00;1.00;12.80;88045.00;;;;5013638;28;20196;-71
2022/04/27 01:56:14;;;;;;;0.10;0.10;;;7.90;1.00;12.80;88045.00;;;;5013814;28;20573;-71
2022/04/27 01:58:47;;;;;;;0.10;0.10;;;7.90;1.00;12.80;88045.00;;;;5015375;28;20579;-71
2022/04/27 02:01:16;;;;;;;0.10;0.10;;;7.80;1.00;12.80;88045.00;;;;5032744;28;20727;-71
2022/04/27 02:03:44;;;;;;;0.10;0.10;;;7.70;1.00;12.80;88045.00;;;;5012653;28;20196;-72
2022/04/27 02:06:19;;;;;;;0.08;0.08;;;7.70;1.00;12.80;88045.00;;;;5027224;28;20199;-72
2022/04/27 02:08:48;;;;;;;0.10;0.10;;;7.70;1.00;12.80;88045.00;;;;5014327;28;20688;-73
2022/04/27 02:11:24;;;;;;;0.10;0.10;;;7.70;1.00;12.80;88045.00;;;;5037870;28;20238;-72
2022/04/27 02:14:02;;;;;;;0.10;0.10;;;7.60;1.00;12.80;88045.00;;;;5012933;28;20223;-71
2022/04/27 02:16:33;;;;;;;0.10;0.10;;;7.60;1.00;12.80;88045.00;;;;5012154;28;20229;-71
2022/04/27 02:19:03;;;;;;;0.10;0.10;;;7.50;1.00;12.80;88045.00;;;;5012565;28;20231;-71
2022/04/27 02:21:32;;;;;;;0.10;0.10;;;7.50;1.00;12.80;88045.00;;;;5034736;28;20207;-71
2022/04/27 02:24:01;;;;;;;0.10;0.10;;;7.50;1.00;12.80;88045.00;;;;5012699;28;20314;-72
2022/04/27 02:26:29;;;;;;;0.10;0.10;;;7.40;1.00;12.80;88045.00;;;;5012780;28;20203;-72
2022/04/27 02:28:58;;;;;;;0.10;0.10;;;7.40;1.00;12.80;88045.00;;;;5011450;28;20697;-72
2022/04/27 02:31:28;;;;;;;0.10;0.10;;;7.40;1.00;12.80;88045.00;;;;5009891;28;20310;-72
2022/04/27 02:33:57;;;;;;;0.10;0.10;;;7.40;1.00;12.80;88045.00;;;;5028911;28;20575;-72
2022/04/27 02:36:25;;;;;;;0.10;0.10;;;7.30;1.00;12.80;88045.00;;;;5011839;28;20211;-72
2022/04/27 02:38:53;;;;;;;0.10;0.10;;;7.30;1.00;12.80;88045.00;;;;5012442;28;20214;-72
2022/04/27 02:41:23;;;;;;;0.10;0.10;;;7.30;1.00;12.80;88045.00;;;;5031069;28;20196;-73
2022/04/27 02:43:51;;;;;;;0.10;0.10;;;7.30;1.00;12.80;88045.00;;;;4999498;28;20658;-72
2022/04/27 02:46:21;;;;;;;0.10;0.10;;;7.30;1.00;12.80;88045.00;;;;5029789;28;20206;-71
2022/04/27 02:51:52;;;;;;;0.03;0.03;;;7.30;1.00;12.80;88045.00;;;;5012294;28;20195;-72
2022/04/27 02:54:26;;;;;;;0.10;0.10;;;7.40;1.00;12.80;88045.00;;;;4995139;28;20306;-72
2022/04/27 02:57:03;;;;;;;0.10;0.10;;;7.30;1.00;12.80;88045.00;;;;5030517;28;20292;-71
2022/04/27 02:59:33;;;;;;;0.10;0.10;;;7.20;1.00;12.80;88045.00;;;;5014161;28;20243;-71
2022/04/27 03:02:02;;;;;;;0.10;0.10;;;7.20;1.00;12.80;88045.00;;;;5031061;28;20199;-72
2022/04/27 03:04:31;;;;;;;0.10;0.10;;;7.00;1.00;12.80;88045.00;;;;5013967;28;20764;-70
2022/04/27 03:07:00;;;;;;;0.10;0.10;;;7.00;1.00;12.80;88045.00;;;;5013348;28;20200;-72
2022/04/27 03:09:29;;;;;;;0.20;0.20;;;6.90;1.00;12.80;88045.00;;;;5014693;28;20643;-70
2022/04/27 03:11:57;;;;;;;0.10;0.10;;;6.90;1.00;12.80;88045.00;;;;5009595;28;20270;-72
2022/04/27 03:14:34;;;;;;;0.10;0.10;;;6.90;1.00;12.80;88045.00;;;;4996203;28;20252;-72
2022/04/27 03:17:02;;;;;;;0.10;0.10;;;6.80;1.00;12.80;88045.00;;;;5013146;28;20310;-72
2022/04/27 03:19:30;;;;;;;0.10;0.10;;;6.70;1.00;12.80;88045.00;;;;5006444;28;20200;-71
2022/04/27 03:21:59;;;;;;;0.10;0.10;;;6.70;1.00;12.80;88045.00;;;;5028040;28;20196;-72
2022/04/27 03:24:27;;;;;;;0.10;0.10;;;6.60;1.00;12.80;88045.00;;;;5027743;28;20251;-71
2022/04/27 03:27:06;;;;;;;0.10;0.10;;;6.50;1.00;12.80;88045.00;;;;5009546;28;20258;-72
2022/04/27 03:29:35;;;;;;;0.10;0.10;;;6.50;1.00;12.80;88045.00;;;;5006973;28;20204;-72
2022/04/27 03:32:04;;;;;;;0.10;0.10;;;6.50;1.00;12.80;88045.00;;;;5008549;28;20633;-72
2022/04/27 03:34:32;;;;;;;0.15;0.15;;;6.60;1.00;12.80;88045.00;;;;5009449;28;20223;-72
2022/04/27 03:37:01;;;;;;;0.10;0.10;;;6.60;1.00;12.80;88045.00;;;;5029424;28;20285;-70
2022/04/27 03:39:30;;;;;;;0.20;0.20;;;6.70;1.00;12.80;88045.00;;;;5029930;28;20294;-73
2022/04/27 03:42:13;;;;;;;0.10;0.10;;;6.70;1.00;12.80;88045.00;;;;5033987;28;20187;-72
2022/04/27 03:44:46;;;;;;;0.10;0.10;;;6.70;1.00;12.80;88045.00;;;;5006121;28;20208;-72
2022/04/27 03:47:14;;;;;;;0.10;0.10;;;6.70;1.00;12.80;88045.00;;;;5027182;28;20203;-72
2022/04/27 03:49:42;;;;;;;0.10;0.10;;;6.70;1.00;12.80;88045.00;;;;5011947;28;20222;-72
2022/04/27 03:52:10;;;;;;;0.10;0.10;;;6.60;1.00;12.80;88045.00;;;;5026231;28;20227;-71
2022/04/27 03:54:39;;;;;;;0.10;0.10;;;6.50;1.00;12.80;88045.00;;;;5001659;28;20747;-71
2022/04/27 03:57:07;;;;;;;0.10;0.10;;;6.60;1.00;12.80;88045.00;;;;5033566;28;20227;-72
2022/04/27 03:59:35;;;;;;;0.10;0.10;;;6.50;1.00;12.80;88045.00;;;;5027279;28;20200;-72
2022/04/27 04:02:06;;;;;;;0.20;0.20;;;6.50;1.00;12.80;88045.00;;;;5011654;28;20295;-72
2022/04/27 04:04:35;;;;;;;0.10;0.10;;;6.50;1.00;12.80;88045.00;;;;4996549;28;20225;-72
2022/04/27 04:07:05;;;;;;;0.10;0.10;;;6.40;1.00;12.80;88045.00;;;;5040094;28;20249;-72
2022/04/27 04:09:42;;;;;;;0.10;0.10;;;6.40;1.00;12.80;88045.00;;;;5005476;28;20191;-71
2022/04/27 04:12:10;;;;;;;0.20;0.20;;;6.30;1.00;12.80;88045.00;;;;5000562;28;20308;-72
2022/04/27 04:14:57;;;;;;;0.10;0.10;;;6.30;1.00;12.80;88045.00;;;;4999554;28;20302;-72
2022/04/27 04:17:44;;;;;;;0.10;0.10;;;6.20;1.00;12.80;88045.00;;;;5001238;28;20220;-72
2022/04/27 04:20:25;;;;;;;0.10;0.10;;;6.10;1.00;12.80;88045.00;;;;5013764;28;20716;-72
2022/04/27 04:23:16;;;;;;;0.10;0.10;;;6.20;1.00;12.80;88045.00;;;;5006468;28;20211;-72
2022/04/27 04:28:41;;;;;;;0.10;0.10;;;6.10;1.00;12.80;88045.00;;;;5007788;28;20741;-74
2022/04/27 04:31:09;;;;;;;0.20;0.20;;;6.20;1.00;12.80;88045.00;;;;5020013;28;20195;-74
2022/04/27 04:33:52;;;;;;;0.10;0.10;;;6.20;1.00;12.80;88045.00;;;;5011524;28;20309;-74
2022/04/27 04:36:21;;;;;;;0.10;0.10;;;6.30;1.00;12.80;88045.00;;;;5010960;28;20207;-73
2022/04/27 04:38:49;;;;;;;0.10;0.10;;;6.20;1.00;12.80;88045.00;;;;5009781;28;20267;-73
2022/04/27 04:41:23;;;;;;;0.10;0.10;;;6.20;1.00;12.80;88045.00;;;;5011713;28;20657;-72
2022/04/27 04:43:55;;;;;;;0.10;0.10;;;6.20;46.80;12.80;88045.00;;;;5000733;28;20227;-72
2022/04/27 04:46:25;;;;;;;0.10;0.10;;;6.20;1.00;12.80;88045.00;;;;4998062;28;20223;-72
2022/04/27 04:49:01;;;;;;;0.00;0.00;;;6.20;50.30;12.80;88045.00;;;;4997552;28;20238;-71
2022/04/27 04:51:34;;;;;;;0.10;0.10;;;6.20;1.00;12.80;88045.00;;;;5002474;28;20221;-72
2022/04/27 04:54:22;;;;;;;0.20;0.20;;;6.20;54.60;12.80;88045.00;;;;5000213;28;20291;-73
2022/04/27 04:57:05;;;;;;;0.10;0.10;;;6.20;1.00;12.80;88045.00;;;;5013521;28;20196;-75
2022/04/27 04:59:56;;;;;;;0.00;0.00;;;6.20;1.00;12.80;88045.00;;;;5041612;28;20680;-74
2022/04/27 05:03:02;;;;;;;0.03;0.03;;;6.20;1.00;12.80;88045.00;;;;4974703;28;20205;-74
2022/04/27 05:05:58;;;;;;;0.10;0.10;;;6.20;1.00;12.80;88045.00;;;;4974990;28;20201;-75
2022/04/27 05:08:40;;;;;;;0.10;0.10;;;6.20;1.00;12.80;88045.00;;;;4995315;28;20624;-72
2022/04/27 05:11:33;;;;;;;0.10;0.10;;;6.30;1.00;12.80;88045.00;;;;5014047;28;20695;-71
2022/04/27 05:14:19;;;;;;;0.10;0.10;;;6.30;1.00;12.80;88045.00;;;;5007465;28;20238;-75
2022/04/27 05:17:18;;;;;;;0.00;0.00;;;6.20;1.00;12.80;88045.00;;;;4994730;28;20196;-74
2022/04/27 05:20:24;;;;;;;0.10;0.10;;;6.00;1.00;12.80;88045.00;;;;4989712;28;20212;-72
2022/04/27 05:22:54;;;;;;;0.10;0.10;;;6.10;1.00;12.80;88045.00;;;;5010568;28;20212;-71
2022/04/27 05:25:37;;;;;;;0.10;0.10;;;6.10;1.00;12.80;88045.00;;;;4997306;28;20223;-71
2022/04/27 05:28:20;;;;;;;0.10;0.10;;;6.10;1.00;12.80;88045.00;;;;5010588;28;20274;-71
2022/04/27 05:34:04;;;;;;;0.10;0.10;;;6.10;1.00;12.80;88045.00;;;;5014106;28;20227;-71
2022/04/27 05:36:41;;;;;;;0.10;0.10;;;6.10;1.00;12.80;88045.00;;;;5011125;28;20580;-71
2022/04/27 05:39:11;;;;;;;0.10;0.10;;;6.10;1.00;12.80;88045.00;;;;5004847;28;20295;-72
2022/04/27 05:41:53;;;;;;;0.10;0.10;;;6.10;1.00;12.80;88045.00;;;;5001762;28;20695;-70
2022/04/27 05:44:47;;;;;;;0.15;0.15;;;6.00;1.00;12.80;88045.00;;;;4992473;28;20220;-71
2022/04/27 05:47:34;;;;;;;0.10;0.10;;;6.00;1.00;12.80;88045.00;;;;4995230;28;20200;-71
2022/04/27 05:50:20;;;;;;;0.10;0.10;;;6.00;1.00;12.80;88045.00;;;;4995134;28;20628;-72
2022/04/27 05:53:00;;;;;;;0.10;0.10;;;6.20;1.00;12.80;88045.00;;;;4994111;28;20200;-71
2022/04/27 05:55:43;;;;;;;0.20;0.20;;;6.30;1.00;12.80;88045.00;;;;4993767;28;20224;-72
2022/04/27 05:58:34;;;;;;;0.10;0.10;;;6.30;1.00;12.80;88045.00;;;;4995256;28;20231;-71
2022/04/27 06:01:21;;;;;;;0.10;0.10;;;6.40;1.00;12.80;88045.00;;;;4995942;28;20681;-70
2022/04/27 06:04:00;;;;;;;0.20;0.20;;;6.40;99.90;12.80;88045.00;;;;4993612;28;20251;-72
2022/04/27 06:06:32;;;;;;;0.20;0.20;;;6.50;99.90;12.80;88045.00;;;;4993691;28;20200;-72
2022/04/27 06:09:03;;;;;;;0.10;0.10;;;6.60;99.90;12.80;88045.00;;;;4994182;28;20606;-70
2022/04/27 06:11:57;;;;;;;0.10;0.10;;;6.60;99.90;12.80;88045.00;;;;4994130;28;20204;-70
2022/04/27 06:14:43;;;;;;;0.10;0.10;;;6.70;99.90;12.80;88045.00;;;;4994764;28;20216;-71
2022/04/27 06:17:25;;;;;;;0.00;0.00;;;6.70;99.90;12.80;88045.00;;;;4993311;28;20211;-70
2022/04/27 06:19:53;;;;;;;0.10;0.10;;;6.70;99.90;12.80;88045.00;;;;4993219;28;20275;-70
2022/04/27 06:22:22;;;;;;;0.10;0.10;;;6.90;99.90;12.80;88045.00;;;;4993481;28;20728;-72
2022/04/27 06:24:51;;;;;;;0.10;0.10;;;7.10;99.90;12.80;88045.00;;;;4993331;28;20236;-71
2022/04/27 06:27:40;;;;;;;0.10;0.10;;;7.30;99.90;12.80;88045.00;;;;4994533;28;20677;-73
2022/04/27 06:30:11;;;;;;;0.10;0.10;;;7.40;99.90;12.80;88045.00;;;;4992849;28;20543;-71
2022/04/27 06:32:40;;;;;;;0.08;0.08;;;7.40;99.90;12.80;88045.00;;;;4993061;28;20609;-72
2022/04/27 06:35:13;;;;;;;0.10;0.10;;;7.40;99.90;12.80;88045.00;;;;5009676;28;20218;-70
2022/04/27 06:37:43;;;;;;;0.10;0.10;;;7.40;99.90;12.80;88045.00;;;;4992786;28;20292;-70
2022/04/27 06:40:13;;;;;;;0.10;0.10;;;7.50;99.90;12.80;88045.00;;;;5010043;28;20295;-70
2022/04/27 06:42:45;;;;;;;0.10;0.10;;;7.50;99.90;12.80;88045.00;;;;4993061;28;20259;-70
2022/04/27 06:45:32;;;;;;;0.10;0.10;;;7.50;99.90;12.80;88045.00;;;;4994580;28;20223;-71
2022/04/27 06:48:19;;;;;;;0.10;0.10;;;7.50;99.90;12.80;88045.00;;;;5009239;28;20215;-71
2022/04/27 06:51:06;;;;;;;0.10;0.10;;;7.70;99.90;12.80;88045.00;;;;5005049;28;20685;-71
2022/04/27 06:53:53;;;;;;;0.10;0.10;;;7.90;99.90;12.80;88045.00;;;;4994162;28;20230;-71
2022/04/27 06:56:46;;;;;;;0.10;0.10;;;8.00;99.90;12.80;88045.00;;;;4993722;28;20196;-70
2022/04/27 06:59:32;;;;;;;0.10;0.10;;;8.00;99.90;12.80;88045.00;;;;4992828;28;20231;-71
2022/04/27 07:02:10;;;;;;;0.10;0.10;;;8.00;99.90;12.80;88045.00;;;;5008459;28;20191;-71
2022/04/27 07:04:40;;;;;;;0.10;0.10;;;8.10;99.90;12.80;88045.00;;;;4992547;28;20231;-71
2022/04/27 07:07:09;;;;;;;0.10;0.10;;;8.30;99.90;12.80;88045.00;;;;5007761;28;20203;-70
2022/04/27 07:09:37;;;;;;;0.10;0.10;;;8.50;99.90;12.80;88045.00;;;;4993827;28;20284;-70
2022/04/27 07:12:07;;;;;;;0.10;0.10;;;8.70;99.90;12.80;88045.00;;;;4995181;28;20192;-71
2022/04/27 07:14:36;;;;;;;0.10;0.10;;;8.90;99.90;12.80;88045.00;;;;4993825;28;20209;-70
2022/04/27 07:17:05;;;;;;;0.10;0.10;;;9.10;99.90;12.80;88045.00;;;;4993573;28;20224;-70
2022/04/27 07:19:33;;;;;;;0.10;0.10;;;9.10;99.90;12.80;88045.00;;;;4997927;28;20235;-71
2022/04/27 07:22:02;;;;;;;0.10;0.10;;;9.30;99.90;12.80;88045.00;;;;4993725;28;20250;-70
2022/04/27 07:24:38;;;;;;;0.10;0.10;;;9.50;99.90;12.80;88037.00;;;;5140949;27;20403;-73
2022/04/27 07:27:06;;;;;;;0.10;0.10;;;9.70;99.90;12.80;88037.00;;;;5128154;28;20201;-71
2022/04/27 07:29:35;;;;;;;0.10;0.10;;;9.80;99.90;12.80;88037.00;;;;5110455;28;20220;-72
2022/04/27 07:32:04;;;;;;;0.10;0.10;;;10.00;99.90;12.80;88037.00;;;;5119006;28;20196;-71
2022/04/27 07:34:32;;;;;;;0.10;0.10;;;10.20;99.90;12.80;88037.00;;;;5109424;28;20622;-74
2022/04/27 07:37:02;;;;;;;0.10;0.10;;;10.40;99.90;12.80;88037.00;;;;5109860;28;20197;-72
2022/04/27 07:39:31;;;;;;;0.10;0.10;;;10.60;99.90;12.80;88037.00;;;;5109613;28;20196;-72
2022/04/27 07:42:00;;;;;;;0.10;0.10;;;10.70;99.90;12.80;88037.00;;;;5109537;28;20189;-73
2022/04/27 07:44:28;;;;;;;0.00;0.00;;;10.90;99.90;12.80;88037.00;;;;5109273;28;20227;-73
2022/04/27 07:46:57;;;;;;;0.10;0.10;;;11.10;99.90;12.80;88037.00;;;;5109275;28;20189;-72
2022/04/27 07:49:25;;;;;;;0.10;0.10;;;11.20;99.90;12.80;88037.00;;;;5109593;28;20589;-73
2022/04/27 07:51:54;;;;;;;0.10;0.10;;;11.40;99.90;12.80;88037.00;;;;5109157;28;20188;-73
2022/04/27 07:54:22;;;;;;;0.10;0.10;;;11.60;99.90;12.80;88037.00;;;;5109000;28;20257;-71
2022/04/27 07:56:50;;;;;;;0.10;0.10;;;11.70;99.90;12.80;88037.00;;;;5109308;28;20682;-70
2022/04/27 07:59:19;;;;;;;0.10;0.10;;;11.80;99.90;12.80;88037.00;;;;5110310;28;20188;-70
2022/04/27 08:01:47;;;;;;;0.10;0.10;;;11.90;99.90;12.80;88037.00;;;;5110155;28;20188;-71
2022/04/27 08:04:16;;;;;;;0.10;0.10;;;11.90;99.90;12.80;88037.00;;;;5111745;28;20629;-73
2022/04/27 08:06:44;;;;;;;0.10;0.10;;;12.00;99.90;12.80;88037.00;;;;5109901;28;20199;-70
2022/04/27 08:09:12;;;;;;;0.10;0.10;;;12.10;99.90;12.80;88037.00;;;;5109156;28;20200;-70
2022/04/27 08:11:41;;;;;;;0.00;0.00;;;12.20;99.90;12.80;88037.00;;;;5110109;28;20242;-71
2022/04/27 08:14:09;;;;;;;0.10;0.10;;;12.40;99.90;12.80;88037.00;;;;5109909;28;20784;-71
2022/04/27 08:16:39;;;;;;;0.10;0.10;;;12.50;99.90;12.80;88037.00;;;;5107815;28;20204;-71
2022/04/27 08:19:07;;;;;;;0.10;0.10;;;12.70;99.90;12.80;88037.00;;;;5108962;28;20665;-71
2022/04/27 08:21:35;;;;;;;0.10;0.10;;;12.90;99.90;12.80;88037.00;;;;5088291;28;20186;-72
2022/04/27 08:24:08;;;;;;;0.10;0.10;;;13.10;99.90;12.80;88037.00;;;;5093599;28;20307;-72
2022/04/27 08:26:36;;;;;;;0.10;0.10;;;13.30;99.90;12.80;88037.00;;;;5107620;28;20245;-72
2022/04/27 08:29:04;;;;;;;0.10;0.10;;;13.40;99.90;12.80;88037.00;;;;5110699;28;20230;-72
2022/04/27 08:31:33;;;;;;;0.10;0.10;;;13.50;99.90;12.80;88037.00;;;;5111406;28;20188;-72
2022/04/27 08:34:02;;;;;;;0.10;0.10;;;13.60;99.90;12.80;88037.00;;;;5107515;28;20212;-72
2022/04/27 08:36:30;;;;;;;0.00;0.00;;;13.70;99.90;12.80;88037.00;;;;5094795;28;20193;-73
2022/04/27 08:38:58;;;;;;;0.10;0.10;;;13.70;99.90;12.80;88037.00;;;;5095049;28;20215;-74
2022/04/27 08:41:28;;;;;;;0.10;0.10;;;13.80;99.90;12.80;88037.00;;;;5095252;28;20193;-72
2022/04/27 08:43:57;;;;;;;0.10;0.10;;;13.70;99.90;12.80;88037.00;;;;5094239;28;20296;-73
2022/04/27 08:46:26;;;;;;;0.00;0.00;;;13.80;99.90;12.80;88037.00;;;;5096217;28;20185;-72
2022/04/27 08:48:54;;;;;;;0.10;0.10;;;14.00;99.90;12.80;88037.00;;;;5094268;28;20201;-73
2022/04/27 08:51:23;;;;;;;0.10;0.10;;;14.20;99.90;12.80;88037.00;;;;5094448;28;20185;-72
2022/04/27 08:53:52;;;;;;;0.00;0.00;;;14.30;99.90;12.80;88037.00;;;;5094060;28;20217;-72
2022/04/27 08:56:20;;;;;;;0.08;0.08;;;14.40;99.90;12.80;88037.00;;;;5094240;28;20188;-72
2022/04/27 08:58:48;;;;;;;0.10;0.10;;;14.40;99.90;12.80;88037.00;;;;5094385;28;20569;-72
2022/04/27 09:01:18;;;;;;;0.10;0.10;;;14.50;99.90;12.80;88037.00;;;;5095069;28;20263;-72
2022/04/27 09:03:48;;;;;;;0.00;0.00;;;14.60;99.90;12.80;88037.00;;;;5097327;28;20221;-72
2022/04/27 09:06:18;;;;;;;0.03;0.03;;;14.80;99.90;12.80;88037.00;;;;5096445;28;20189;-72
2022/04/27 09:08:50;;;;;;;0.00;0.00;;;14.80;99.90;12.80;88037.00;;;;5094205;28;20189;-72
2022/04/27 09:11:20;;;;;;;0.10;0.10;;;14.80;99.90;12.80;88037.00;;;;5094276;28;20185;-72
2022/04/27 09:13:51;;;;;;;0.10;0.10;;;14.80;99.90;12.80;88037.00;;;;5092935;28;20270;-73
2022/04/27 09:16:22;;;;;;;0.10;0.10;;;14.90;99.90;12.80;88037.00;;;;5094040;28;20212;-72
2022/04/27 09:22:03;;;;;;;0.00;0.00;;;14.80;99.90;12.80;88037.00;;;;5094047;28;20193;-73
2022/04/27 09:24:49;;;;;;;0.00;0.00;;;14.90;99.90;12.80;88037.00;;;;5093964;28;20232;-73
2022/04/27 09:27:18;;;;;;;0.00;0.00;;;15.10;99.90;12.80;88037.00;;;;5093679;28;20203;-71
2022/04/27 09:29:58;;;;;;;0.00;0.00;;;15.20;99.90;12.80;88037.00;;;;5094801;28;20557;-71
2022/04/27 09:32:27;;;;;;;0.03;0.03;;;15.30;99.90;12.80;88037.00;;;;5094938;28;20234;-72
2022/04/27 09:34:56;;;;;;;0.00;0.00;;;15.30;99.90;12.80;88037.00;;;;5094525;28;20601;-72
2022/04/27 09:37:27;;;;;;;0.00;0.00;;;15.30;99.90;12.80;88037.00;;;;5094028;28;20601;-72
2022/04/27 09:40:07;;;;;;;0.00;0.00;;;15.40;99.90;12.80;88037.00;;;;5093775;28;20224;-73
2022/04/27 09:42:37;;;;;;;0.10;0.10;;;15.60;99.90;12.80;88037.00;;;;5093401;28;20201;-73
2022/04/27 09:45:17;;;;;;;0.00;0.00;;;15.80;99.90;12.80;88037.00;;;;5093026;28;20224;-72
2022/04/27 09:47:47;;;;;;;0.00;0.00;;;15.90;99.90;12.80;88037.00;;;;5092388;28;20530;-72
2022/04/27 09:50:15;;;;;;;0.00;0.00;;;16.00;99.90;12.80;88037.00;;;;5093769;28;20196;-73
2022/04/27 09:52:44;;;;;;;0.00;0.00;;;16.20;99.90;12.80;88037.00;;;;5092965;28;20662;-72
2022/04/27 09:55:13;;;;;;;0.08;0.08;;;16.40;99.90;12.80;88037.00;;;;5093142;28;20329;-72
2022/04/27 09:57:55;;;;;;;0.00;0.00;;;16.50;99.90;12.80;88037.00;;;;5093017;28;20188;-72
2022/04/27 10:00:25;;;;;;;0.00;0.00;;;16.50;99.90;12.80;88037.00;;;;5093172;28;20295;-72
2022/04/27 10:02:57;;;;;;;0.00;0.00;;;16.50;99.90;12.80;88037.00;;;;5093257;28;20224;-73
2022/04/27 10:05:27;;;;;;;0.00;0.00;;;16.50;99.90;12.80;88037.00;;;;5093042;28;20256;-72
2022/04/27 10:07:56;;;;;;;0.10;0.10;;;16.40;99.90;12.80;88037.00;;;;5092552;28;20188;-73
2022/04/27 10:10:26;;;;;;;0.00;0.00;;;16.30;99.90;12.80;88037.00;;;;5092890;28;20188;-72
2022/04/27 10:12:55;;;;;;;0.10;0.10;;;16.40;99.90;12.80;88037.00;;;;5092572;28;20196;-73
2022/04/27 10:15:24;;;;;;;0.00;0.00;;;16.60;99.90;12.80;88037.00;;;;5092851;28;20217;-73
2022/04/27 10:17:52;;;;;;;0.00;0.00;;;16.90;97.30;12.80;88037.00;;;;5092498;28;20246;-72
2022/04/27 10:20:34;;;;;;;0.00;0.00;;;16.90;99.90;12.80;87954.00;;;;5093143;28;20189;-72
2022/04/27 10:23:24;;;;;;;0.00;0.00;;;16.90;99.90;12.80;88037.00;;;;5093265;28;20262;-73
2022/04/27 10:26:15;;;;;;;0.00;0.00;;;17.00;1.00;12.80;88037.00;;;;5092269;28;20231;-72
2022/04/27 10:28:48;;;;;;;0.00;0.00;;;17.10;1.00;12.80;88037.00;;;;5092440;28;20200;-72
2022/04/27 10:32:02;;;;;;;0.00;0.00;;;17.20;1.70;12.80;88037.00;;;;5092680;28;20238;-73
2022/04/27 10:34:31;;;;;;;0.10;0.10;;;17.20;1.00;12.80;88037.00;;;;5092526;28;20629;-72
2022/04/27 10:37:01;;;;;;;0.00;0.00;;;17.50;1.00;12.80;88037.00;;;;5092486;28;20205;-73
2022/04/27 10:39:30;;;;;;;0.00;0.00;;;17.40;1.00;12.80;88037.00;;;;5092878;28;20193;-72
2022/04/27 10:42:34;;;;;;;0.00;0.00;;;17.40;1.00;12.80;88037.00;;;;5092884;28;20192;-72
2022/04/27 10:45:12;;;;;;;0.00;0.00;;;17.30;1.00;12.80;88037.00;;;;5092311;28;20227;-74
2022/04/27 10:47:44;;;;;;;0.00;0.00;;;17.30;1.00;12.80;88037.00;;;;5092269;28;20580;-72
2022/04/27 10:50:29;;;;;;;0.00;0.00;;;17.20;1.00;12.80;88037.00;;;;5091617;28;20598;-72
2022/04/27 10:53:15;;;;;;;0.00;0.00;;;17.30;1.00;12.80;88037.00;;;;5074464;28;20208;-72
2022/04/27 10:55:56;;;;;;;0.00;0.00;;;17.30;57.50;12.80;88037.00;;;;5090287;28;20448;-72
2022/04/27 10:58:34;;;;;;;0.00;0.00;;;17.30;1.00;12.80;88037.00;;;;5091737;28;20207;-72
2022/04/27 11:01:29;;;;;;;0.00;0.00;;;17.40;1.00;12.80;88037.00;;;;5092231;28;20238;-73
2022/04/27 11:04:05;;;;;;;0.00;0.00;;;17.40;1.00;12.80;88037.00;;;;5092396;28;20224;-73
2022/04/27 11:07:30;;;;;;;0.00;0.00;;;17.40;1.00;12.80;88037.00;;;;5092952;28;20224;-73
2022/04/27 11:10:17;;;;;;;0.00;0.00;;;17.40;1.00;12.80;88037.00;;;;5074971;28;20269;-73
2022/04/27 11:12:49;;;;;;;0.00;0.00;;;17.50;1.00;12.80;88037.00;;;;5093918;28;20596;-73
2022/04/27 11:15:22;;;;;;;0.00;0.00;;;17.50;1.00;12.80;88037.00;;;;5091811;28;20228;-73
2022/04/27 11:17:57;;;;;;;0.00;0.00;;;17.60;1.00;12.80;88037.00;;;;5090284;28;20205;-74
2022/04/27 11:20:34;;;;;;;0.08;0.08;;;17.70;1.00;12.80;88037.00;;;;5091680;28;20200;-73
2022/04/27 11:23:07;;;;;;;0.00;0.00;;;17.70;1.00;12.80;88037.00;;;;5092071;28;20275;-73
2022/04/27 11:25:37;;;;;;;0.00;0.00;;;17.60;1.00;12.80;88037.00;;;;5091407;28;20220;-73
2022/04/27 11:28:06;;;;;;;0.00;0.00;;;17.60;1.00;12.80;88037.00;;;;5092105;28;20655;-73
2022/04/27 11:30:36;;;;;;;0.00;0.00;;;17.50;1.00;12.80;88037.00;;;;5092388;28;20189;-72
2022/04/27 11:33:04;;;;;;;0.00;0.00;;;17.30;1.00;12.80;88037.00;;;;5091861;28;20193;-72
2022/04/27 11:35:40;;;;;;;0.00;0.00;;;17.10;1.00;12.80;88037.00;;;;5091730;28;20216;-72
2022/04/27 11:38:09;;;;;;;0.03;0.03;;;17.10;1.00;12.80;88037.00;;;;5091954;28;20189;-73
2022/04/27 11:40:38;;;;;;;0.00;0.00;;;17.00;1.00;12.80;88037.00;;;;5091677;28;20192;-72
2022/04/27 11:43:07;;;;;;;0.00;0.00;;;17.00;1.00;12.80;88037.00;;;;5091565;28;20189;-72
2022/04/27 11:45:36;;;;;;;0.08;0.08;;;17.10;1.00;12.80;88037.00;;;;5091637;28;20227;-72
2022/04/27 11:48:07;;;;;;;0.00;0.00;;;17.30;1.00;12.80;88037.00;;;;5092124;28;20189;-73